Time;durP1;ratioP1;P1;durP2;ratioP2;P2;SDS_P1;SDS_P2;PMS_P1;PMS_P2;Temp;Humidity;BMP_temperature;BMP_pressure;BME280_temperature;BME280_humidity;BME280_pressure;Samples;Min_cycle;Max_cycle;Signal;HPM_P1;HPM_P2
2022/06/13 00:01:19;;;;;;;;;4.00;3.00;;;;;-147.17;100.00;-15917.19;5056184;28;51268;-66
2022/06/13 00:03:45;;;;;;;;;4.33;3.00;;;;;-147.17;100.00;-15917.19;5056917;28;51225;-66
2022/06/13 00:06:10;;;;;;;;;4.00;3.33;;;;;-147.17;100.00;-15917.19;5063141;28;51211;-67
2022/06/13 00:08:36;;;;;;;;;4.33;4.00;;;;;-147.17;100.00;-15917.19;5059377;27;51320;-66
2022/06/13 00:11:02;;;;;;;;;3.33;3.00;;;;;-147.17;100.00;-15917.19;5060665;27;51125;-66
2022/06/13 00:13:28;;;;;;;;;4.33;4.00;;;;;-147.17;100.00;-15917.19;5052419;27;52570;-65
2022/06/13 00:15:53;;;;;;;;;4.00;3.67;;;;;-147.17;100.00;-15917.19;5061694;28;51152;-65
2022/06/13 00:18:19;;;;;;;;;3.00;2.67;;;;;-147.17;100.00;-15917.19;5054584;28;51121;-65
2022/06/13 00:20:44;;;;;;;;;4.00;4.00;;;;;-147.17;100.00;-15917.19;5054736;28;50995;-65
2022/06/13 00:23:09;;;;;;;;;6.33;6.33;;;;;-147.17;100.00;-15917.19;5059740;28;52788;-65
2022/06/13 00:25:35;;;;;;;;;6.00;5.67;;;;;-147.17;100.00;-15917.19;5062014;28;51156;-67
2022/06/13 00:28:00;;;;;;;;;4.00;4.00;;;;;-147.17;100.00;-15917.19;5062300;28;51256;-65
2022/06/13 00:30:26;;;;;;;;;4.33;4.00;;;;;-147.17;100.00;-15917.19;5054577;28;52013;-66
2022/06/13 00:32:52;;;;;;;;;5.67;5.33;;;;;-147.17;100.00;-15917.19;5054471;28;51805;-66
2022/06/13 00:35:18;;;;;;;;;4.00;4.00;;;;;-147.17;100.00;-15917.19;5067733;28;51226;-67
2022/06/13 00:37:43;;;;;;;;;4.00;4.00;;;;;-147.17;100.00;-15917.19;5071032;27;51074;-65
2022/06/13 00:40:10;;;;;;;;;3.67;3.00;;;;;-147.17;100.00;-15917.19;5068937;27;51109;-66
2022/06/13 00:42:36;;;;;;;;;3.33;3.33;;;;;-147.17;100.00;-15917.19;5060758;28;51757;-66
2022/06/13 00:45:25;;;;;;;;;5.00;3.00;;;;;-147.17;100.00;-15917.19;5066706;28;50953;-66
2022/06/13 00:47:54;;;;;;;;;5.00;3.33;;;;;-147.17;100.00;-15917.19;5057470;28;51050;-66
2022/06/13 00:50:33;;;;;;;;;5.00;4.00;;;;;-147.17;100.00;-15917.19;5063755;27;51134;-65
2022/06/13 00:53:04;;;;;;;;;4.33;4.00;;;;;-147.17;100.00;-15917.19;5059279;28;51148;-67
2022/06/13 00:55:37;;;;;;;;;5.33;5.00;;;;;-147.17;100.00;-15917.19;5069541;27;51174;-66
2022/06/13 00:58:04;;;;;;;;;6.00;6.00;;;;;-147.17;100.00;-15917.19;5062032;27;51301;-66
2022/06/13 01:00:32;;;;;;;;;4.00;3.67;;;;;-147.17;100.00;-15917.19;5057188;28;51260;-67
2022/06/13 01:03:00;;;;;;;;;4.00;3.33;;;;;-147.17;100.00;-15917.19;5067142;28;52704;-66
2022/06/13 01:05:30;;;;;;;;;7.00;4.00;;;;;-147.17;100.00;-15917.19;5060820;27;51077;-67
2022/06/13 01:07:58;;;;;;;;;4.00;4.00;;;;;-147.17;100.00;-15917.19;5054429;28;51049;-67
2022/06/13 01:13:11;;;;;;;;;4.67;4.33;;;;;-147.17;100.00;-15917.19;5062663;28;51529;-66
2022/06/13 01:15:49;;;;;;;;;6.00;5.00;;;;;-147.17;100.00;-15917.19;5055385;28;51138;-66
2022/06/13 01:18:51;;;;;;;;;5.67;5.00;;;;;-147.17;100.00;-15917.19;5058632;28;51326;-66
2022/06/13 01:21:46;;;;;;;;;5.00;5.00;;;;;-147.17;100.00;-15917.19;5054304;28;51059;-67
2022/06/13 01:24:26;;;;;;;;;4.00;3.67;;;;;-147.17;100.00;-15917.19;5049068;28;52509;-67
2022/06/13 01:27:04;;;;;;;;;3.00;3.00;;;;;-147.17;100.00;-15917.19;5054282;27;51110;-67
2022/06/13 01:29:47;;;;;;;;;6.67;4.00;;;;;-147.17;100.00;-15917.19;5057439;28;51125;-67
2022/06/13 01:32:40;;;;;;;;;7.33;5.00;;;;;-147.17;100.00;-15917.19;5066918;28;51119;-67
2022/06/13 01:35:23;;;;;;;;;5.00;4.00;;;;;-147.17;100.00;-15917.19;5077619;27;53750;-67
2022/06/13 01:38:07;;;;;;;;;4.67;4.00;;;;;-147.17;100.00;-15917.19;5055068;28;50993;-69
2022/06/13 01:40:42;;;;;;;;;3.67;3.67;;;;;-147.17;100.00;-15917.19;5065064;28;51143;-67
2022/06/13 01:43:15;;;;;;;;;4.00;4.00;;;;;-147.17;100.00;-15917.19;5065388;28;51792;-68
2022/06/13 01:45:48;;;;;;;;;6.33;5.00;;;;;-147.17;100.00;-15917.19;5061084;27;51063;-67
2022/06/13 01:48:29;;;;;;;;;4.33;4.00;;;;;-147.17;100.00;-15917.19;5060112;28;51196;-66
2022/06/13 01:51:05;;;;;;;;;5.67;4.33;;;;;-147.17;100.00;-15917.19;5061603;28;51300;-69
2022/06/13 01:53:33;;;;;;;;;4.67;4.67;;;;;-147.17;100.00;-15917.19;5053540;28;51141;-67
2022/06/13 01:56:08;;;;;;;;;6.33;6.00;;;;;-147.17;100.00;-15917.19;5053131;28;51718;-67
2022/06/13 01:58:56;;;;;;;;;6.33;5.00;;;;;-147.17;100.00;-15917.19;5060755;28;51367;-68
2022/06/13 02:01:34;;;;;;;;;7.00;5.00;;;;;-147.17;100.00;-15917.19;5058130;28;51142;-68
2022/06/13 02:04:02;;;;;;;;;6.00;6.00;;;;;-147.17;100.00;-15917.19;5068380;28;51227;-68
2022/06/13 02:06:31;;;;;;;;;5.00;5.00;;;;;-147.17;100.00;-15917.19;5069809;28;50979;-67
2022/06/13 02:09:01;;;;;;;;;6.33;6.00;;;;;-147.17;100.00;-15917.19;5081205;27;51199;-68
2022/06/13 02:11:34;;;;;;;;;5.67;5.00;;;;;-147.17;100.00;-15917.19;5066136;27;51113;-68
2022/06/13 02:14:04;;;;;;;;;9.00;6.33;;;;;-147.17;100.00;-15917.19;5063907;27;51149;-67
2022/06/13 02:16:41;;;;;;;;;7.00;6.67;;;;;-147.17;100.00;-15917.19;5066566;27;51170;-67
2022/06/13 02:19:29;;;;;;;;;6.33;5.00;;;;;-147.17;100.00;-15917.19;5073385;27;51158;-67
2022/06/13 02:22:07;;;;;;;;;6.00;5.33;;;;;-147.17;100.00;-15917.19;5064202;28;50936;-68
2022/06/13 02:24:39;;;;;;;;;7.33;7.00;;;;;-147.17;100.00;-15917.19;5070101;27;51043;-68
2022/06/13 02:27:08;;;;;;;;;9.00;7.00;;;;;-147.17;100.00;-15917.19;5057715;27;50961;-68
2022/06/13 02:29:55;;;;;;;;;7.67;7.33;;;;;-147.17;100.00;-15917.19;5061570;28;51118;-68
2022/06/13 02:32:32;;;;;;;;;8.33;8.33;;;;;-147.17;100.00;-15917.19;5060621;28;51340;-67
2022/06/13 02:35:04;;;;;;;;;9.25;8.50;;;;;-147.17;100.00;-15917.19;5068419;27;51121;-67
2022/06/13 02:37:39;;;;;;;;;7.50;7.50;;;;;-147.17;100.00;-15917.19;5069279;28;51347;-68
2022/06/13 02:40:20;;;;;;;;;8.00;8.00;;;;;-147.17;100.00;-15917.19;5058295;28;51033;-67
2022/06/13 02:42:52;;;;;;;;;7.00;7.00;;;;;-147.17;100.00;-15917.19;5061500;28;50912;-69
2022/06/13 02:45:38;;;;;;;;;9.00;8.67;;;;;-147.17;100.00;-15917.19;5066653;28;50948;-68
2022/06/13 02:48:22;;;;;;;;;9.67;8.33;;;;;-147.17;100.00;-15917.19;5066082;27;51330;-68
2022/06/13 02:51:25;;;;;;;;;10.00;8.33;;;;;-147.17;100.00;-15917.19;5066838;28;51008;-68
2022/06/13 02:53:56;;;;;;;;;9.75;7.50;;;;;-147.17;100.00;-15917.19;5069324;27;51229;-68
2022/06/13 02:57:23;;;;;;;;;8.33;7.33;;;;;-147.17;100.00;-15917.19;5056807;27;51020;-68
2022/06/13 02:59:58;;;;;;;;;8.00;5.67;;;;;-147.17;100.00;-15917.19;5059642;27;51129;-68
2022/06/13 03:02:59;;;;;;;;;7.00;6.67;;;;;-147.17;100.00;-15917.19;5059763;28;51175;-68
2022/06/13 03:05:46;;;;;;;;;5.67;5.33;;;;;-147.17;100.00;-15917.19;5061089;28;50811;-67
2022/06/13 03:08:26;;;;;;;;;6.75;6.75;;;;;-147.17;100.00;-15917.19;5067525;27;51062;-67
2022/06/13 03:10:59;;;;;;;;;7.00;5.67;;;;;-147.17;100.00;-15917.19;5066088;27;51089;-68
2022/06/13 03:13:47;;;;;;;;;6.00;5.75;;;;;-147.17;100.00;-15917.19;5062509;28;51065;-67
2022/06/13 03:16:23;;;;;;;;;6.67;6.33;;;;;-147.17;100.00;-15917.19;5066902;28;51094;-67
2022/06/13 03:18:53;;;;;;;;;6.67;6.67;;;;;-147.17;100.00;-15917.19;5071272;27;50951;-68
2022/06/13 03:21:29;;;;;;;;;8.00;7.00;;;;;-147.17;100.00;-15917.19;5063864;28;51116;-67
2022/06/13 03:24:10;;;;;;;;;7.00;6.67;;;;;-147.17;100.00;-15917.19;5052126;28;51146;-69
2022/06/13 03:26:41;;;;;;;;;5.00;5.00;;;;;-147.17;100.00;-15917.19;5064805;27;51118;-68
2022/06/13 03:29:31;;;;;;;;;7.33;6.67;;;;;-147.17;100.00;-15917.19;5063386;28;50993;-67
2022/06/13 03:32:08;;;;;;;;;6.33;6.33;;;;;-147.17;100.00;-15917.19;5053120;28;52943;-68
2022/06/13 03:34:39;;;;;;;;;5.75;5.25;;;;;-147.17;100.00;-15917.19;5054384;28;51255;-68
2022/06/13 03:37:09;;;;;;;;;9.00;6.67;;;;;-147.17;100.00;-15917.19;5060516;28;51014;-68
2022/06/13 03:39:52;;;;;;;;;7.00;6.00;;;;;-147.17;100.00;-15917.19;5056524;28;51191;-68
2022/06/13 03:42:27;;;;;;;;;7.67;7.00;;;;;-147.17;100.00;-15917.19;5066499;28;51313;-68
2022/06/13 03:45:05;;;;;;;;;6.00;6.00;;;;;-147.17;100.00;-15917.19;5070661;27;50994;-68
2022/06/13 03:47:37;;;;;;;;;7.00;7.00;;;;;-147.17;100.00;-15917.19;5069273;28;50990;-67
2022/06/13 03:50:31;;;;;;;;;7.67;7.33;;;;;-147.17;100.00;-15917.19;5060593;28;51144;-67
2022/06/13 03:53:02;;;;;;;;;9.00;7.67;;;;;-147.17;100.00;-15917.19;5070273;28;51963;-67
2022/06/13 03:55:34;;;;;;;;;10.75;9.75;;;;;-147.17;100.00;-15917.19;5069325;27;51165;-67
2022/06/13 03:58:15;;;;;;;;;10.00;8.00;;;;;-147.17;100.00;-15917.19;5060894;28;51180;-67
2022/06/13 04:01:17;;;;;;;;;8.00;7.00;;;;;-147.17;100.00;-15917.19;5062956;28;52353;-68
2022/06/13 04:03:43;;;;;;;;;8.00;6.00;;;;;-147.17;100.00;-15917.19;5054583;28;51120;-68
2022/06/13 04:06:30;;;;;;;;;11.00;11.00;;;;;-147.17;100.00;-15917.19;5065859;28;50956;-68
2022/06/13 04:08:57;;;;;;;;;6.33;6.00;;;;;-147.17;100.00;-15917.19;5066076;27;50888;-67
2022/06/13 04:11:31;;;;;;;;;6.00;6.00;;;;;-147.17;100.00;-15917.19;5069731;28;51236;-68
2022/06/13 04:14:17;;;;;;;;;5.67;5.67;;;;;-147.17;100.00;-15917.19;5064211;27;50970;-68
2022/06/13 04:17:00;;;;;;;;;7.00;7.00;;;;;-147.17;100.00;-15917.19;5066150;27;51061;-69
2022/06/13 04:19:44;;;;;;;;;6.00;6.00;;;;;-147.17;100.00;-15917.19;5072697;27;51137;-68
2022/06/13 04:22:15;;;;;;;;;7.33;7.33;;;;;-147.17;100.00;-15917.19;5064095;28;51187;-68
2022/06/13 04:24:56;;;;;;;;;6.00;5.00;;;;;-147.17;100.00;-15917.19;5063708;27;52221;-68
2022/06/13 04:27:33;;;;;;;;;6.67;5.67;;;;;-147.17;100.00;-15917.19;5069472;28;51154;-68
2022/06/13 04:30:09;;;;;;;;;7.67;6.67;;;;;-147.17;100.00;-15917.19;5055684;28;51268;-68
2022/06/13 04:32:44;;;;;;;;;6.00;5.33;;;;;-147.17;100.00;-15917.19;5072016;28;51114;-67
2022/06/13 04:35:11;;;;;;;;;10.00;9.00;;;;;-147.17;100.00;-15917.19;5070134;27;52213;-67
2022/06/13 04:37:39;;;;;;;;;8.00;7.00;;;;;-147.17;100.00;-15917.19;5070782;28;51090;-68
2022/06/13 04:40:08;;;;;;;;;8.00;7.00;;;;;-147.17;100.00;-15917.19;5072338;27;52971;-69
2022/06/13 04:42:38;;;;;;;;;9.00;7.33;;;;;-147.17;100.00;-15917.19;5053934;28;53030;-66
2022/06/13 04:45:19;;;;;;;;;5.00;5.00;;;;;-147.17;100.00;-15917.19;5057620;28;51096;-67
2022/06/13 04:47:46;;;;;;;;;6.33;6.00;;;;;-147.17;100.00;-15917.19;5060810;28;51566;-69
2022/06/13 04:50:16;;;;;;;;;6.67;6.67;;;;;-147.17;100.00;-15917.19;5065051;27;51141;-67
2022/06/13 04:52:47;;;;;;;;;8.00;8.00;;;;;-147.17;100.00;-15917.19;5065726;27;51207;-66
2022/06/13 04:55:19;;;;;;;;;12.33;9.33;;;;;-147.17;100.00;-15917.19;5060471;28;51117;-68
2022/06/13 04:57:44;;;;;;;;;11.00;11.00;;;;;-147.17;100.00;-15917.19;5069731;27;51177;-68
2022/06/13 05:00:12;;;;;;;;;6.33;4.33;;;;;-147.17;100.00;-15917.19;5062735;27;51508;-69
2022/06/13 05:02:51;;;;;;;;;9.33;6.00;;;;;-147.17;100.00;-15917.19;5055515;28;51765;-69
2022/06/13 05:05:43;;;;;;;;;8.33;7.00;;;;;-147.17;100.00;-15917.19;5062313;28;52233;-69
2022/06/13 05:08:20;;;;;;;;;7.33;6.67;;;;;-147.17;100.00;-15917.19;5060975;28;51132;-69
2022/06/13 05:10:50;;;;;;;;;12.67;12.00;;;;;-147.17;100.00;-15917.19;5065223;27;50931;-70
2022/06/13 05:13:17;;;;;;;;;10.33;8.00;;;;;-147.17;100.00;-15917.19;5063881;28;52049;-71
2022/06/13 05:15:53;;;;;;;;;4.67;4.67;;;;;-147.17;100.00;-15917.19;5066057;27;51713;-69
2022/06/13 05:18:54;;;;;;;;;6.00;5.00;;;;;-147.17;100.00;-15917.19;5068663;28;51145;-69
2022/06/13 05:21:28;;;;;;;;;6.67;5.33;;;;;-147.17;100.00;-15917.19;5052111;28;51023;-67
2022/06/13 05:24:00;;;;;;;;;7.33;6.00;;;;;-147.17;100.00;-15917.19;5054320;28;51174;-68
2022/06/13 05:26:29;;;;;;;;;8.00;7.00;;;;;-147.17;100.00;-15917.19;5053994;28;52274;-68
2022/06/13 05:28:56;;;;;;;;;7.33;6.00;;;;;-147.17;100.00;-15917.19;5054424;28;51179;-68
2022/06/13 05:31:22;;;;;;;;;4.67;4.33;;;;;-147.17;100.00;-15917.19;5066269;28;51058;-68
2022/06/13 05:33:49;;;;;;;;;9.33;8.00;;;;;-147.17;100.00;-15917.19;5074025;28;50988;-67
2022/06/13 05:36:18;;;;;;;;;6.00;5.33;;;;;-147.17;100.00;-15917.19;5073885;27;52026;-67
2022/06/13 05:38:52;;;;;;;;;4.33;4.33;;;;;-147.17;100.00;-15917.19;5074477;28;51117;-69
2022/06/13 05:41:18;;;;;;;;;6.00;5.00;;;;;-147.17;100.00;-15917.19;5052919;28;51083;-68
2022/06/13 05:43:44;;;;;;;;;6.00;6.00;;;;;-147.17;100.00;-15917.19;5054000;28;51202;-67
2022/06/13 05:46:17;;;;;;;;;8.00;7.00;;;;;-147.17;100.00;-15917.19;5053188;28;52077;-68
2022/06/13 05:48:42;;;;;;;;;8.33;7.00;;;;;-147.17;100.00;-15917.19;5068232;28;51035;-67
2022/06/13 05:51:07;;;;;;;;;5.67;5.67;;;;;-147.17;100.00;-15917.19;5067743;27;51009;-67
2022/06/13 05:53:33;;;;;;;;;30.75;29.50;;;;;-147.17;100.00;-15917.19;5068028;27;51125;-68
2022/06/13 05:56:01;;;;;;;;;5.33;5.33;;;;;-147.17;100.00;-15917.19;5070473;27;51842;-67
2022/06/13 05:58:27;;;;;;;;;9.33;9.00;;;;;-147.17;100.00;-15917.19;5064707;28;51200;-67
2022/06/13 06:00:55;;;;;;;;;12.00;11.00;;;;;-147.17;100.00;-15917.19;5067591;27;51076;-67
2022/06/13 06:03:21;;;;;;;;;8.67;8.67;;;;;-147.17;100.00;-15917.19;5068926;27;51030;-68
2022/06/13 06:05:47;;;;;;;;;9.00;6.67;;;;;-147.17;100.00;-15917.19;5068757;27;50975;-66
2022/06/13 06:08:17;;;;;;;;;6.00;5.67;;;;;-147.17;100.00;-15917.19;5067162;27;51588;-68
2022/06/13 06:10:44;;;;;;;;;7.67;7.00;;;;;-147.17;100.00;-15915.72;5066430;27;50963;-67
2022/06/13 06:13:14;;;;;;;;;5.33;4.67;;;;;-147.17;100.00;-14924.75;5070236;28;51377;-67
2022/06/13 06:15:41;;;;;;;;;5.67;5.00;;;;;-147.17;100.00;-13685.63;5065150;28;51158;-67
2022/06/13 06:18:06;;;;;;;;;6.67;6.00;;;;;-147.17;100.00;-12694.06;5069064;27;51183;-68
2022/06/13 06:20:32;;;;;;;;;4.67;4.00;;;;;-147.17;100.00;-11454.25;5066009;27;51050;-68
2022/06/13 06:22:57;;;;;;;;;6.67;6.33;;;;;-147.17;100.00;-10214.00;5068462;27;51221;-67
2022/06/13 06:25:23;;;;;;;;;6.00;6.00;;;;;-147.17;100.00;-9469.69;5068336;27;51045;-68
2022/06/13 06:27:49;;;;;;;;;7.00;6.00;;;;;-147.17;100.00;-8725.22;5069966;28;51014;-69
2022/06/13 06:30:17;;;;;;;;;6.33;6.00;;;;;-147.17;100.00;-7980.59;5062491;28;51190;-67
2022/06/13 06:32:55;;;;;;;;;7.33;6.00;;;;;-147.17;100.00;-6739.25;5067185;28;51354;-68
2022/06/13 06:35:21;;;;;;;;;5.00;5.00;;;;;-147.17;100.00;-5497.50;5062316;28;51290;-68
2022/06/13 06:37:52;;;;;;;;;4.00;4.00;;;;;-147.17;100.00;-4006.88;5068160;27;51100;-68
2022/06/13 06:40:19;;;;;;;;;9.67;8.00;;;;;-147.17;100.00;-1769.84;5066280;28;51273;-68
2022/06/13 06:42:45;;;;;;;;;5.67;5.67;;;;;-147.17;100.00;-29.03;5065605;27;51048;-68
2022/06/13 06:45:12;;;;;;;;;7.00;6.33;;;;;-147.17;100.00;1214.91;5062177;28;51432;-68
2022/06/13 06:47:39;;;;;;;;;6.67;6.00;;;;;-147.17;100.00;1961.44;5066131;27;51208;-67
2022/06/13 06:50:05;;;;;;;;;7.33;7.00;;;;;-147.17;100.00;2459.22;5063216;28;52746;-68
2022/06/13 06:52:31;;;;;;;;;11.00;8.67;;;;;-147.17;100.00;5447.22;5061968;28;51304;-66
2022/06/13 07:00:24;;;;;;;;;6.00;6.00;;;;;-147.17;100.00;6942.09;5053740;28;51145;-67
2022/06/13 07:02:50;;;;;;;;;5.67;5.67;;;;;-147.17;100.00;7939.00;5059361;27;50841;-66
2022/06/13 07:05:16;;;;;;;;;7.00;7.00;;;;;-147.17;100.00;8437.53;5051753;28;50993;-67
2022/06/13 07:07:43;;;;;;;;;7.00;7.00;;;;;-147.17;100.00;8686.84;5052135;28;50967;-68
2022/06/13 07:10:12;;;;;;;;;6.33;5.33;;;;;-147.17;100.00;9434.84;5059829;28;51129;-68
2022/06/13 07:12:37;;;;;;;;;5.33;5.00;;;;;-147.17;100.00;11929.16;5073030;27;51032;-67
2022/06/13 07:15:03;;;;;;;;;6.33;6.33;;;;;-147.17;100.00;11679.66;5070958;28;52171;-67
2022/06/13 07:17:28;;;;;;;;;4.33;4.33;;;;;-147.17;100.00;14674.81;5072276;27;50995;-67
2022/06/13 07:19:53;;;;;;;;;5.00;5.00;;;;;-147.17;100.00;15423.94;5068066;27;51038;-66
2022/06/13 07:22:20;;;;;;;;;8.00;7.00;;;;;-147.17;100.00;16922.66;5054463;28;51458;-67
2022/06/13 07:24:46;;;;;;;;;6.33;5.67;;;;;-147.17;100.00;18812.50;5054468;28;51212;-67
2022/06/13 07:27:13;;;;;;;;;6.00;6.00;;;;;-147.17;100.00;19136.69;5070770;27;51028;-66
2022/06/13 07:29:39;;;;;;;;;7.67;4.33;;;;;-147.17;100.00;21467.25;5055646;27;51757;-69
2022/06/13 07:32:21;;;;;;;;;6.67;6.67;;;;;-147.17;100.00;22680.97;5052646;28;51214;-67
2022/06/13 07:34:49;;;;;;;;;7.00;6.00;;;;;-147.17;100.00;22123.91;5051223;28;51053;-67
2022/06/13 07:40:04;;;;;;;;;4.67;4.33;;;;;-147.17;100.00;22637.94;5050722;28;51167;-68
2022/06/13 07:42:38;;;;;;;;;5.00;5.00;;;;;-147.17;100.00;24483.63;5057103;28;50874;-67
2022/06/13 07:45:05;;;;;;;;;5.00;4.33;;;;;-147.17;100.00;25704.13;5066119;28;52123;-68
2022/06/13 07:47:31;;;;;;;;;6.00;5.00;;;;;-147.17;100.00;25825.44;5068451;27;51069;-68
2022/06/13 07:49:57;;;;;;;;;5.00;3.67;;;;;-147.17;100.00;25946.72;5070452;28;51078;-68
2022/06/13 07:52:23;;;;;;;;;5.33;5.00;;;;;-147.17;100.00;27919.25;5054504;28;51248;-68
2022/06/13 07:54:48;;;;;;;;;5.00;4.67;;;;;-147.17;100.00;28232.44;5051384;28;52102;-68
2022/06/13 07:57:13;;;;;;;;;5.67;5.67;;;;;-147.17;100.00;28741.41;5050582;28;51129;-67
2022/06/13 07:59:39;;;;;;;;;4.00;4.00;;;;;-147.17;100.00;29499.16;5052204;28;51342;-68
2022/06/13 08:02:06;;;;;;;;;5.67;4.33;;;;;-147.17;100.00;29978.91;5064414;28;50931;-68
2022/06/13 08:04:31;;;;;;;;;4.33;4.33;;;;;-147.17;100.00;30164.97;5034084;28;51190;-67
2022/06/13 08:06:57;;;;;;;;;4.00;3.33;;;;;-147.17;100.00;30460.72;5051524;28;51138;-68
2022/06/13 08:09:22;;;;;;;;;3.33;3.33;;;;;-147.17;100.00;32637.34;5052136;28;51020;-67
2022/06/13 08:11:50;;;;;;;;;4.67;4.00;;;;;-147.17;100.00;33544.81;5051751;28;51332;-66
2022/06/13 08:14:17;;;;;;;;;5.33;5.00;;;;;-147.17;100.00;33742.78;5051723;28;50894;-66
2022/06/13 08:16:42;;;;;;;;;5.00;4.00;;;;;-147.17;100.00;34207.41;5050739;28;51000;-66
2022/06/13 08:19:08;;;;;;;;;2.00;2.00;;;;;-147.17;100.00;34732.84;5056384;28;51509;-67
2022/06/13 08:21:35;;;;;;;;;6.00;5.00;;;;;-147.17;100.00;35562.34;5051470;28;51210;-67
2022/06/13 08:24:02;;;;;;;;;3.00;3.00;;;;;-147.17;100.00;36105.63;5051336;28;50983;-67
2022/06/13 08:26:27;;;;;;;;;6.00;4.00;;;;;-147.17;100.00;36084.03;5051066;28;51032;-67
2022/06/13 08:28:53;;;;;;;;;4.33;3.67;;;;;-147.17;100.00;36802.00;5050023;28;51277;-66
2022/06/13 08:31:21;;;;;;;;;3.00;3.00;;;;;-147.17;100.00;37447.47;5067056;27;51327;-66
2022/06/13 08:33:47;;;;;;;;;3.67;2.67;;;;;-147.17;100.00;38204.94;5049112;28;53208;-67
2022/06/13 08:36:13;;;;;;;;;5.00;5.00;;;;;-147.17;100.00;39037.13;5050972;28;50999;-67
2022/06/13 08:38:38;;;;;;;;;4.00;4.00;;;;;-147.17;100.00;39626.03;5051786;28;50889;-68
2022/06/13 08:41:23;;;;;;;;;2.00;2.00;;;;;-147.17;100.00;40046.19;5055091;28;51126;-67
2022/06/13 08:44:07;;;;;;;;;4.00;2.67;;;;;-147.17;100.00;40552.78;5056965;28;51178;-66
2022/06/13 08:46:51;;;;;;;;;2.00;2.00;;;;;-147.17;100.00;40886.63;5054413;28;51074;-66
2022/06/13 08:49:43;;;;;;;;;2.00;2.00;;;;;-147.17;100.00;41114.44;5054076;28;51027;-68
2022/06/13 08:52:22;;;;;;;;;4.67;3.67;;;;;-147.17;100.00;41344.22;5073176;28;50920;-69
2022/06/13 08:55:20;;;;;;;;;3.00;2.67;;;;;-147.17;100.00;41554.38;5074356;27;51387;-67
2022/06/13 08:57:55;;;;;;;;;3.00;2.33;;;;;-147.17;100.00;41652.59;5075041;27;51198;-67
2022/06/13 09:00:24;;;;;;;;;3.00;2.00;;;;;-147.17;100.00;41648.66;5074479;27;51328;-67
2022/06/13 09:02:55;;;;;;;;;4.00;3.00;;;;;-147.17;100.00;41668.31;5077275;27;50958;-67
2022/06/13 09:05:33;;;;;;;;;4.00;3.00;;;;;-147.17;100.00;41817.59;5053990;28;51066;-67
2022/06/13 09:08:12;;;;;;;;;3.00;2.33;;;;;-147.17;100.00;41919.72;5054014;28;51048;-67
2022/06/13 09:10:56;;;;;;;;;3.00;3.00;;;;;-147.17;100.00;42080.81;5054122;27;50972;-67
2022/06/13 09:13:31;;;;;;;;;2.00;2.00;;;;;-147.17;100.00;42285.13;5054068;28;51199;-68
2022/06/13 09:16:04;;;;;;;;;4.00;3.67;;;;;-147.17;100.00;42513.00;5054119;28;52195;-67
2022/06/13 09:18:42;;;;;;;;;3.00;3.00;;;;;-147.17;100.00;42784.16;5069479;27;51001;-68
2022/06/13 09:21:29;;;;;;;;;3.33;3.00;;;;;-147.17;100.00;42764.50;5052498;28;51258;-66
2022/06/13 09:24:05;;;;;;;;;4.33;4.00;;;;;-147.17;100.00;42792.00;5054025;28;51011;-67
2022/06/13 09:26:38;;;;;;;;;2.00;2.00;;;;;-147.17;100.00;42568.03;5053631;28;50996;-68
2022/06/13 09:29:22;;;;;;;;;1.33;1.33;;;;;-147.17;100.00;42328.34;5053267;28;50899;-67
2022/06/13 09:31:53;;;;;;;;;3.00;2.00;;;;;-147.17;100.00;42375.50;5053396;28;51145;-67
2022/06/13 09:34:43;;;;;;;;;2.67;2.67;;;;;-147.17;100.00;42391.22;5053668;28;51358;-67
2022/06/13 09:37:12;;;;;;;;;2.33;2.00;;;;;-147.17;100.00;42355.84;5053098;28;51846;-70
2022/06/13 09:39:38;;;;;;;;;3.00;2.67;;;;;-147.17;100.00;42300.84;5053708;28;51086;-67
2022/06/13 09:42:34;;;;;;;;;4.00;2.67;;;;;-147.17;100.00;42505.16;5053449;28;50853;-67
2022/06/13 09:45:23;;;;;;;;;3.00;3.00;;;;;-147.17;100.00;42725.19;5042006;28;51281;-67
2022/06/13 09:47:55;;;;;;;;;3.00;3.00;;;;;-147.17;100.00;42744.84;5059359;28;52569;-66
2022/06/13 09:50:23;;;;;;;;;1.33;1.33;;;;;-147.17;100.00;42792.00;5052959;28;51098;-67
2022/06/13 09:52:59;;;;;;;;;3.33;2.67;;;;;-147.17;100.00;42691.81;5066076;27;50896;-67
2022/06/13 09:55:41;;;;;;;;;3.67;3.67;;;;;-147.17;100.00;42693.75;5066871;28;51081;-67
2022/06/13 09:58:14;;;;;;;;;2.00;2.00;;;;;-147.17;100.00;42689.84;5065842;28;51042;-67
2022/06/13 10:00:50;;;;;;;;;3.00;2.67;;;;;-147.17;100.00;42632.84;5063665;28;51172;-67
2022/06/13 10:03:31;;;;;;;;;3.67;3.00;;;;;-147.17;100.00;42632.84;5071247;28;51264;-67
2022/06/13 10:06:20;;;;;;;;;2.67;2.67;;;;;-147.17;100.00;42729.13;5061050;28;51112;-66
2022/06/13 10:09:08;;;;;;;;;2.67;2.67;;;;;-147.17;100.00;42676.09;5073450;27;52112;-67
2022/06/13 10:12:04;;;;;;;;;4.00;3.00;;;;;-147.17;100.00;42725.19;5052294;28;50988;-67
2022/06/13 10:14:52;;;;;;;;;5.33;5.33;;;;;-147.17;100.00;42951.16;5063413;28;51047;-67
2022/06/13 10:17:26;;;;;;;;;2.00;2.00;;;;;-147.17;100.00;43137.81;5066124;27;51307;-67
2022/06/13 10:20:23;;;;;;;;;3.33;3.33;;;;;-147.17;100.00;43295.03;5065818;28;52098;-67
2022/06/13 10:22:49;;;;;;;;;6.00;5.00;;;;;-147.17;100.00;43568.16;5046122;28;51077;-66
2022/06/13 10:25:29;;;;;;;;;4.00;4.00;;;;;-147.17;100.00;43627.13;5051791;28;51075;-67
2022/06/13 10:28:20;;;;;;;;;4.00;3.00;;;;;-147.17;100.00;43910.13;5053239;28;51282;-67
2022/06/13 10:31:01;;;;;;;;;3.67;3.00;;;;;-147.17;100.00;44265.88;5066641;28;52017;-67
2022/06/13 10:33:46;;;;;;;;;2.33;2.33;;;;;-147.17;100.00;44427.03;5058787;28;52270;-67
2022/06/13 10:36:17;;;;;;;;;5.00;2.67;;;;;-147.17;100.00;44489.94;5048980;28;51126;-68
2022/06/13 10:38:42;;;;;;;;;5.00;4.00;;;;;-147.17;100.00;44527.28;5070760;28;51142;-67
2022/06/13 10:41:09;;;;;;;;;6.33;6.00;;;;;-147.17;100.00;44698.31;5065784;28;52990;-67
2022/06/13 10:43:36;;;;;;;;;5.67;5.33;;;;;-147.17;100.00;44749.41;5057904;27;51067;-66
2022/06/13 10:46:01;;;;;;;;;3.33;3.33;;;;;-147.17;100.00;44698.31;5064190;28;51119;-67
2022/06/13 10:48:43;;;;;;;;;6.00;5.33;;;;;-147.17;100.00;44692.41;5061458;28;51258;-66
2022/06/13 10:51:09;;;;;;;;;3.00;3.00;;;;;-147.17;100.00;44596.09;5064351;27;51150;-66
2022/06/13 10:53:43;;;;;;;;;4.00;4.00;;;;;-147.17;100.00;44635.41;5067959;28;51099;-66
2022/06/13 10:56:14;;;;;;;;;6.67;6.00;;;;;-147.17;100.00;44749.41;5066867;27;51094;-67
2022/06/13 10:58:46;;;;;;;;;4.33;4.33;;;;;-147.17;100.00;44662.94;5059996;27;51042;-67
2022/06/13 11:01:18;;;;;;;;;4.00;4.00;;;;;-147.17;100.00;44668.81;5062080;28;52155;-66
2022/06/13 11:03:58;;;;;;;;;5.00;5.00;;;;;-147.17;100.00;44729.75;5061358;27;51123;-65
2022/06/13 11:06:39;;;;;;;;;5.00;5.00;;;;;-147.17;100.00;44837.88;5057426;28;51099;-66
2022/06/13 11:09:19;;;;;;;;;4.00;4.00;;;;;-147.17;100.00;44670.78;5062022;28;51071;-66
2022/06/13 11:11:45;;;;;;;;;6.33;5.00;;;;;-147.17;100.00;44214.75;5057337;28;51431;-66
2022/06/13 11:14:33;;;;;;;;;6.67;6.67;;;;;-147.17;100.00;43579.97;5058353;28;51156;-65
2022/06/13 11:22:38;;;;;;;;;4.67;4.33;;;;;-147.17;100.00;42236.00;5068502;28;51386;-66
2022/06/13 11:25:26;;;;;;;;;4.00;3.33;;;;;-147.17;100.00;41966.88;5059891;27;51094;-66
2022/06/13 11:28:11;;;;;;;;;5.67;4.33;;;;;-147.17;100.00;41900.09;5047260;28;51171;-66
2022/06/13 11:30:53;;;;;;;;;7.67;5.00;;;;;-147.17;100.00;41485.63;5064470;28;51377;-66
2022/06/13 11:33:40;;;;;;;;;6.00;6.00;;;;;-147.17;100.00;40937.69;5064347;27;51017;-67
2022/06/13 11:36:25;;;;;;;;;4.33;4.00;;;;;-147.17;100.00;41556.34;5065024;27;51223;-67
2022/06/13 11:39:01;;;;;;;;;4.67;3.67;;;;;-147.17;100.00;42862.72;5054355;28;51174;-67
2022/06/13 11:41:44;;;;;;;;;5.00;4.00;;;;;-147.17;100.00;43963.19;5068476;28;51084;-66
2022/06/13 11:44:12;;;;;;;;;4.00;4.00;;;;;-147.17;100.00;44717.97;5059157;28;52107;-67
2022/06/13 11:46:50;;;;;;;;;2.33;2.00;;;;;-147.17;100.00;45225.16;5063121;28;51059;-65
2022/06/13 11:49:15;;;;;;;;;4.33;4.33;;;;;-147.17;100.00;45494.50;5060160;27;51319;-66
2022/06/13 11:51:47;;;;;;;;;5.33;5.33;;;;;-147.17;100.00;45763.88;5061651;28;51070;-65